Time;durP1;ratioP1;P1;durP2;ratioP2;P2;SDS_P1;SDS_P2;PMS_P1;PMS_P2;Temp;Humidity;BMP_temperature;BMP_pressure;BME280_temperature;BME280_humidity;BME280_pressure;Samples;Min_cycle;Max_cycle;Signal;HPM_P1;HPM_P2
2022/01/10 00:00:12;;;;;;;0.60;0.60;;;2.40;99.90;;;;;;5097473;28;20054;-78
2022/01/10 00:02:39;;;;;;;0.90;0.90;;;2.40;99.90;;;;;;5114964;28;20475;-78
2022/01/10 00:05:04;;;;;;;0.60;0.60;;;2.40;99.90;;;;;;5113928;28;20039;-77
2022/01/10 00:07:30;;;;;;;0.60;0.60;;;2.30;99.90;;;;;;5113833;28;20056;-77
2022/01/10 00:09:56;;;;;;;0.60;0.60;;;2.30;99.90;;;;;;5097568;28;20047;-78
2022/01/10 00:12:21;;;;;;;0.60;0.60;;;2.30;99.90;;;;;;5113872;28;20079;-77
2022/01/10 00:14:47;;;;;;;0.60;0.60;;;2.20;99.90;;;;;;5114022;28;20086;-78
2022/01/10 00:17:12;;;;;;;0.60;0.60;;;2.20;99.90;;;;;;5113779;28;20047;-78
2022/01/10 00:19:38;;;;;;;0.60;0.60;;;2.10;99.90;;;;;;5114695;28;20051;-77
2022/01/10 00:22:06;;;;;;;4.00;3.72;;;2.10;99.90;;;;;;5096729;28;20055;-78
2022/01/10 00:24:32;;;;;;;0.70;0.70;;;2.10;99.90;;;;;;5114628;28;20089;-77
2022/01/10 00:26:58;;;;;;;0.60;0.60;;;2.00;99.90;;;;;;5114579;28;20079;-77
2022/01/10 00:29:23;;;;;;;0.60;0.60;;;2.00;99.90;;;;;;5113561;28;20074;-77
2022/01/10 00:31:49;;;;;;;0.60;0.60;;;2.70;99.90;;;;;;5113570;28;20047;-78
2022/01/10 00:34:15;;;;;;;0.60;0.60;;;1.90;99.90;;;;;;5114187;28;20043;-77
2022/01/10 00:36:40;;;;;;;0.60;0.60;;;1.90;99.90;;;;;;5114424;28;20487;-77
2022/01/10 00:39:06;;;;;;;0.60;0.60;;;1.90;99.90;;;;;;5114150;28;20040;-77
2022/01/10 00:41:32;;;;;;;0.60;0.60;;;1.80;99.90;;;;;;5114447;28;20551;-77
2022/01/10 00:43:58;;;;;;;0.60;0.60;;;1.80;99.90;;;;;;5113810;28;20134;-78
2022/01/10 00:46:23;;;;;;;0.60;0.60;;;1.70;99.90;;;;;;5120550;27;20055;-77
2022/01/10 00:48:49;;;;;;;0.60;0.60;;;1.70;99.90;;;;;;5134920;27;20122;-77
2022/01/10 00:51:15;;;;;;;0.60;0.60;;;1.70;99.90;;;;;;5116448;27;20043;-77
2022/01/10 00:53:43;;;;;;;0.60;0.60;;;1.60;99.90;;;;;;5083550;28;20432;-77
2022/01/10 00:56:09;;;;;;;0.60;0.60;;;1.60;99.90;;;;;;5116772;28;20475;-76
2022/01/10 00:58:36;;;;;;;0.60;0.60;;;1.50;99.90;;;;;;5099808;28;20054;-77
2022/01/10 01:01:03;;;;;;;0.60;0.60;;;1.50;99.90;;;;;;5099733;28;20458;-77
2022/01/10 01:03:28;;;;;;;;;;;1.50;99.90;;;;;;5100090;28;20039;-77
2022/01/10 01:05:54;;;;;;;0.60;0.60;;;1.40;99.90;;;;;;5134560;28;19926;-77
2022/01/10 01:08:20;;;;;;;0.63;0.63;;;1.40;99.90;;;;;;5134625;28;20101;-77
2022/01/10 01:13:37;;;;;;;0.60;0.60;;;1.30;99.90;;;;;;5134623;28;20054;-77
2022/01/10 01:24:04;;;;;;;0.60;0.60;;;1.10;99.90;;;;;;5134543;28;20047;-77
2022/01/10 01:26:35;;;;;;;0.60;0.60;;;1.10;99.90;;;;;;5134588;28;20062;-77
2022/01/10 01:29:03;;;;;;;0.60;0.60;;;1.00;99.90;;;;;;5134817;28;20043;-77
2022/01/10 01:31:28;;;;;;;0.50;0.50;;;1.00;99.90;;;;;;5116107;28;20096;-77
2022/01/10 01:33:54;;;;;;;0.60;0.60;;;1.00;99.90;;;;;;5134127;28;20035;-77
2022/01/10 01:36:25;;;;;;;0.60;0.60;;;0.90;99.90;;;;;;5120735;28;20039;-77
2022/01/10 01:38:52;;;;;;;0.60;0.60;;;0.90;99.90;;;;;;5145626;28;20047;-76
2022/01/10 01:43:53;;;;;;;0.70;0.70;;;1.50;99.90;;;;;;5144060;28;20051;-76
2022/01/10 01:46:22;;;;;;;0.60;0.60;;;0.80;99.90;;;;;;5145425;27;20074;-77
2022/01/10 01:48:50;;;;;;;0.60;0.60;;;0.80;99.90;;;;;;5147736;27;20047;-77
2022/01/10 01:51:16;;;;;;;0.60;0.60;;;0.90;99.90;;;;;;5107811;27;20479;-77
2022/01/10 01:53:42;;;;;;;0.60;0.60;;;0.90;99.90;;;;;;5102863;27;20031;-78
2022/01/10 01:56:09;;;;;;;0.60;0.60;;;0.80;99.90;;;;;;5119964;27;20054;-77
2022/01/10 01:58:36;;;;;;;0.73;0.73;;;0.70;99.90;;;;;;5119999;27;20047;-77
2022/01/10 02:01:03;;;;;;;0.60;0.60;;;0.70;99.90;;;;;;5138081;27;20043;-78
2022/01/10 02:03:29;;;;;;;;;;;0.80;99.90;;;;;;5120127;27;20471;-76
2022/01/10 02:05:55;;;;;;;0.60;0.60;;;0.70;99.90;;;;;;5121978;27;19919;-77
2022/01/10 02:08:21;;;;;;;0.60;0.60;;;0.60;99.90;;;;;;5127568;27;20524;-76
2022/01/10 02:10:50;;;;;;;0.60;0.60;;;0.60;99.90;;;;;;5145684;27;20055;-77
2022/01/10 02:13:15;;;;;;;0.60;0.60;;;0.60;99.90;;;;;;5128361;27;20147;-77
2022/01/10 02:18:17;;;;;;;0.60;0.60;;;0.60;99.90;;;;;;5133634;27;20058;-77
2022/01/10 02:20:43;;;;;;;0.60;0.60;;;0.60;99.90;;;;;;5115690;27;20046;-78
2022/01/10 02:23:09;;;;;;;0.60;0.60;;;0.60;99.90;;;;;;5119409;27;20039;-77
2022/01/10 02:25:35;;;;;;;0.60;0.60;;;0.50;99.90;;;;;;5137424;27;20545;-76
2022/01/10 02:28:01;;;;;;;0.60;0.60;;;0.50;99.90;;;;;;5119157;27;20126;-76
2022/01/10 02:30:27;;;;;;;0.63;0.63;;;0.50;99.90;;;;;;5137578;27;20084;-78
2022/01/10 02:32:56;;;;;;;0.70;0.70;;;0.50;99.90;;;;;;5137393;27;20051;-77
2022/01/10 02:35:27;;;;;;;0.60;0.60;;;0.40;99.90;;;;;;5119258;27;20474;-78
2022/01/10 02:37:55;;;;;;;1.90;1.80;;;0.40;99.90;;;;;;5119194;27;20421;-77
2022/01/10 02:40:23;;;;;;;0.70;0.70;;;0.40;99.90;;;;;;5119202;27;20047;-77
2022/01/10 02:42:49;;;;;;;0.70;0.70;;;0.40;99.90;;;;;;5102483;27;20047;-78
2022/01/10 02:45:15;;;;;;;0.70;0.70;;;0.50;99.90;;;;;;5118786;27;20482;-77
2022/01/10 02:47:41;;;;;;;0.70;0.70;;;0.40;99.90;;;;;;5137443;27;20072;-77
2022/01/10 02:50:07;;;;;;;0.60;0.60;;;0.30;99.90;;;;;;5118879;27;20047;-77
2022/01/10 02:52:34;;;;;;;0.70;0.70;;;0.30;99.90;;;;;;5136867;27;20504;-78
2022/01/10 02:55:01;;;;;;;0.70;0.70;;;0.40;99.90;;;;;;5118746;27;20039;-78
2022/01/10 02:57:30;;;;;;;;;;;0.30;99.90;;;;;;5118951;27;20050;-77
2022/01/10 02:59:57;;;;;;;0.60;0.60;;;0.20;99.90;;;;;;5136858;27;19919;-76
2022/01/10 03:02:28;;;;;;;0.70;0.70;;;0.20;99.90;;;;;;5136940;27;20101;-77
2022/01/10 03:04:53;;;;;;;0.63;0.63;;;0.20;99.90;;;;;;5136806;27;20047;-77
2022/01/10 03:07:22;;;;;;;0.70;0.70;;;0.20;99.90;;;;;;5125250;27;20119;-76
2022/01/10 03:09:48;;;;;;;0.70;0.70;;;0.20;99.90;;;;;;5122544;27;20046;-76
2022/01/10 03:12:15;;;;;;;0.70;0.70;;;0.30;99.90;;;;;;5143706;27;20039;-77
2022/01/10 03:14:41;;;;;;;0.60;0.60;;;0.10;99.90;;;;;;5143859;27;20051;-77
2022/01/10 03:17:08;;;;;;;0.60;0.60;;;0.10;99.90;;;;;;5123386;27;20066;-76
2022/01/10 03:19:34;;;;;;;0.70;0.70;;;0.00;99.90;;;;;;5126414;27;20043;-76
2022/01/10 03:22:00;;;;;;;0.60;0.60;;;0.00;99.90;;;;;;5139574;27;20047;-77
2022/01/10 03:24:26;;;;;;;0.70;0.70;;;0.10;99.90;;;;;;5118837;27;20043;-77
2022/01/10 03:26:51;;;;;;;0.70;0.70;;;0.10;99.90;;;;;;5118158;27;20043;-80
2022/01/10 03:29:17;;;;;;;0.70;0.70;;;0.10;99.90;;;;;;5136284;27;20054;-77
2022/01/10 03:31:42;;;;;;;0.70;0.70;;;0.00;99.90;;;;;;5136410;27;20043;-77
2022/01/10 03:34:12;;;;;;;9.05;5.05;;;0.00;99.90;;;;;;5136181;27;20043;-76
2022/01/10 03:36:38;;;;;;;0.70;0.70;;;;;;;;;;5136208;27;20360;-77
2022/01/10 03:39:04;;;;;;;0.70;0.70;;;0.00;99.90;;;;;;5118024;27;20049;-76
2022/01/10 03:41:29;;;;;;;0.70;0.70;;;0.00;99.90;;;;;;5118125;27;20410;-78
2022/01/10 03:43:55;;;;;;;0.63;0.63;;;-0.10;99.90;;;;;;5135963;27;20050;-78
2022/01/10 03:46:20;;;;;;;0.68;0.68;;;-0.10;99.90;;;;;;5100601;27;20058;-77
2022/01/10 03:48:46;;;;;;;0.70;0.70;;;-0.10;99.90;;;;;;5135879;27;20545;-77
2022/01/10 03:51:12;;;;;;;0.70;0.70;;;-0.10;99.90;;;;;;5117846;27;20039;-77
2022/01/10 03:53:37;;;;;;;0.70;0.70;;;-0.10;99.90;;;;;;5123748;27;20108;-78
2022/01/10 03:56:03;;;;;;;0.70;0.70;;;-0.10;99.90;;;;;;5118434;27;20047;-77
2022/01/10 03:58:29;;;;;;;0.70;0.70;;;-0.10;99.90;;;;;;5118146;27;20065;-76
2022/01/10 04:00:55;;;;;;;0.70;0.70;;;-0.10;99.90;;;;;;5121750;27;20039;-76
2022/01/10 04:03:20;;;;;;;0.80;0.80;;;-0.20;99.90;;;;;;5136399;27;20047;-77
2022/01/10 04:05:46;;;;;;;0.70;0.70;;;-0.20;99.90;;;;;;5135916;27;20398;-76
2022/01/10 04:08:12;;;;;;;0.98;0.98;;;0.00;99.90;;;;;;5134714;27;20607;-77
2022/01/10 04:10:38;;;;;;;0.67;0.67;;;-0.30;99.90;;;;;;5117511;27;20043;-77
2022/01/10 04:13:04;;;;;;;0.70;0.70;;;-0.20;99.90;;;;;;5117489;27;20053;-77
2022/01/10 04:15:29;;;;;;;0.80;0.80;;;-0.20;99.90;;;;;;5117362;27;20553;-77
2022/01/10 04:17:57;;;;;;;0.70;0.70;;;-0.20;99.90;;;;;;5135114;27;20051;-77
2022/01/10 04:20:23;;;;;;;1.73;1.63;;;-0.30;99.90;;;;;;5100208;27;20139;-78
2022/01/10 04:22:49;;;;;;;0.60;0.60;;;-0.30;99.90;;;;;;5117362;27;20092;-76
2022/01/10 04:25:15;;;;;;;0.70;0.70;;;-0.30;99.90;;;;;;5117121;27;20417;-76
2022/01/10 04:27:41;;;;;;;0.60;0.60;;;-0.30;99.90;;;;;;5117050;27;20130;-77
2022/01/10 04:30:07;;;;;;;0.60;0.60;;;-0.30;99.90;;;;;;5135143;27;20122;-76
2022/01/10 04:32:33;;;;;;;0.60;0.60;;;-0.30;99.90;;;;;;5135201;27;20122;-77
2022/01/10 04:34:59;;;;;;;0.70;0.70;;;-0.30;99.90;;;;;;5099771;27;20079;-76
2022/01/10 04:37:25;;;;;;;0.70;0.70;;;-0.30;99.90;;;;;;5134821;27;20043;-76
2022/01/10 04:39:50;;;;;;;0.70;0.70;;;-0.40;99.90;;;;;;5135019;27;20099;-77
2022/01/10 04:42:16;;;;;;;0.70;0.70;;;-0.40;99.90;;;;;;5134973;27;20042;-77
2022/01/10 04:44:42;;;;;;;0.60;0.60;;;-0.40;99.90;;;;;;5117026;27;20046;-77
2022/01/10 04:47:08;;;;;;;0.60;0.60;;;-0.40;99.90;;;;;;5134937;27;20047;-77
2022/01/10 04:49:58;;;;;;;0.60;0.60;;;-0.40;99.90;;;;;;5116785;27;20055;-77
2022/01/10 04:52:20;;;;;;;0.70;0.70;;;-0.40;99.90;;;;;;5135363;27;20058;-77
2022/01/10 04:54:45;;;;;;;0.70;0.70;;;-0.40;99.90;;;;;;5134660;27;20383;-77
2022/01/10 04:57:11;;;;;;;1.33;1.23;;;-0.40;99.90;;;;;;5116431;28;20058;-78
2022/01/10 04:59:36;;;;;;;0.80;0.80;;;0.30;99.90;;;;;;5116549;28;20045;-78
2022/01/10 05:02:02;;;;;;;0.60;0.60;;;-0.40;99.90;;;;;;5135292;28;20047;-77
2022/01/10 05:04:28;;;;;;;0.70;0.70;;;-0.50;99.90;;;;;;5116912;28;20544;-77
2022/01/10 05:06:54;;;;;;;0.70;0.70;;;-0.50;99.90;;;;;;5134641;28;20047;-77
2022/01/10 05:09:19;;;;;;;0.70;0.70;;;0.00;99.90;;;;;;5134629;28;20394;-77
2022/01/10 05:11:45;;;;;;;0.70;0.70;;;-0.50;99.90;;;;;;5134713;28;20043;-76
2022/01/10 05:14:12;;;;;;;0.70;0.70;;;0.50;99.90;;;;;;5116565;28;20043;-77
2022/01/10 05:16:40;;;;;;;0.70;0.70;;;-0.50;99.90;;;;;;5134271;28;20039;-76
2022/01/10 05:19:06;;;;;;;0.70;0.70;;;-0.50;99.90;;;;;;5116597;27;20043;-77
2022/01/10 05:21:31;;;;;;;0.70;0.70;;;-0.40;99.90;;;;;;5120870;27;20042;-76
2022/01/10 05:23:57;;;;;;;0.70;0.70;;;-0.50;99.90;;;;;;5138727;27;20043;-77
2022/01/10 05:26:22;;;;;;;0.60;0.60;;;-0.50;99.90;;;;;;5120666;27;20039;-77
2022/01/10 05:28:48;;;;;;;0.60;0.60;;;-0.50;99.90;;;;;;5120502;27;20570;-77
2022/01/10 05:31:14;;;;;;;0.70;0.70;;;-0.50;99.90;;;;;;5138564;27;20482;-76
2022/01/10 05:33:39;;;;;;;0.70;0.70;;;-0.60;99.90;;;;;;5120325;27;20047;-76
2022/01/10 05:36:05;;;;;;;0.70;0.70;;;-0.50;99.90;;;;;;5138523;27;20054;-77
2022/01/10 05:38:31;;;;;;;0.70;0.70;;;-0.60;99.90;;;;;;5120379;27;20129;-76
2022/01/10 05:40:57;;;;;;;0.70;0.70;;;-0.60;99.90;;;;;;5120366;27;20387;-77
2022/01/10 05:43:22;;;;;;;0.70;0.70;;;-0.40;99.90;;;;;;5138335;27;20042;-77
2022/01/10 05:45:48;;;;;;;0.70;0.70;;;-0.60;99.90;;;;;;5138005;27;20065;-77
2022/01/10 05:48:21;;;;;;;0.70;0.70;;;-0.60;99.90;;;;;;5120760;27;20047;-77
2022/01/10 05:50:47;;;;;;;0.70;0.70;;;-0.60;99.90;;;;;;5120705;27;20130;-77
2022/01/10 05:53:13;;;;;;;0.70;0.70;;;-0.60;99.90;;;;;;5120037;27;20135;-77
2022/01/10 05:55:39;;;;;;;0.70;0.70;;;-0.60;99.90;;;;;;5138415;27;20186;-77
2022/01/10 05:58:06;;;;;;;0.70;0.70;;;-0.70;99.90;;;;;;5138122;27;20035;-77
2022/01/10 06:00:34;;;;;;;0.82;0.80;;;-0.60;99.90;;;;;;5119840;27;20391;-78
2022/01/10 06:03:00;;;;;;;0.65;0.65;;;-0.70;99.90;;;;;;5119856;27;20050;-77
2022/01/10 06:05:30;;;;;;;0.70;0.70;;;-0.70;99.90;;;;;;5137969;27;20391;-77
2022/01/10 06:07:57;;;;;;;0.70;0.70;;;-0.70;99.90;;;;;;5119534;27;20043;-77
2022/01/10 06:10:23;;;;;;;0.70;0.70;;;-0.70;99.90;;;;;;5137836;27;20051;-77
2022/01/10 06:12:49;;;;;;;0.70;0.70;;;-0.70;99.90;;;;;;5119695;27;20507;-77
2022/01/10 06:15:14;;;;;;;0.70;0.70;;;-0.70;99.90;;;;;;5137654;27;20054;-79
2022/01/10 06:17:40;;;;;;;2.85;2.15;;;-0.60;99.90;;;;;;5119700;27;20055;-77
2022/01/10 06:20:06;;;;;;;0.60;0.60;;;-0.70;99.90;;;;;;5137685;27;20047;-78
2022/01/10 06:22:31;;;;;;;0.70;0.70;;;-0.80;99.90;;;;;;5136656;27;20038;-79
2022/01/10 06:24:58;;;;;;;0.60;0.60;;;-0.80;99.90;;;;;;5158317;27;20377;-79
2022/01/10 06:27:23;;;;;;;0.70;0.70;;;-0.90;99.90;;;;;;5140058;27;20088;-77
2022/01/10 06:29:49;;;;;;;0.70;0.70;;;-0.80;99.90;;;;;;5122286;27;20478;-76
2022/01/10 06:32:15;;;;;;;0.70;0.70;;;-0.80;99.90;;;;;;5157277;27;20061;-76
2022/01/10 06:34:40;;;;;;;0.70;0.70;;;-0.80;99.90;;;;;;5139918;27;20385;-76
2022/01/10 06:37:06;;;;;;;0.70;0.70;;;0.20;99.90;;;;;;5158321;27;20042;-75
2022/01/10 06:39:31;;;;;;;0.80;0.80;;;-0.90;99.90;;;;;;5139739;27;20047;-76
2022/01/10 06:41:57;;;;;;;0.63;0.63;;;-0.90;99.90;;;;;;5157927;27;20470;-76
2022/01/10 06:44:23;;;;;;;0.70;0.70;;;-0.80;99.90;;;;;;5157875;27;20043;-75
2022/01/10 06:46:49;;;;;;;0.70;0.70;;;-0.90;99.90;;;;;;5157722;27;20474;-76
2022/01/10 06:49:14;;;;;;;0.70;0.70;;;-0.90;99.90;;;;;;5139604;27;20171;-77
2022/01/10 06:51:40;;;;;;;0.70;0.70;;;-0.90;99.90;;;;;;5122912;27;20042;-78
2022/01/10 06:54:05;;;;;;;0.80;0.80;;;-0.90;99.90;;;;;;5157682;27;20375;-79
2022/01/10 06:56:31;;;;;;;0.70;0.70;;;-0.90;99.90;;;;;;5139469;27;20038;-78
2022/01/10 06:58:57;;;;;;;0.70;0.70;;;-0.90;99.90;;;;;;5139250;27;20375;-80
2022/01/10 07:01:23;;;;;;;1.45;1.35;;;-0.90;99.90;;;;;;5122166;27;20050;-79
2022/01/10 07:03:52;;;;;;;0.70;0.70;;;-0.90;99.90;;;;;;5158004;27;20038;-78
2022/01/10 07:06:18;;;;;;;0.70;0.70;;;-0.90;99.90;;;;;;5138808;27;20553;-76
2022/01/10 07:08:43;;;;;;;0.70;0.70;;;-0.90;99.90;;;;;;5138966;27;20122;-77
2022/01/10 07:11:09;;;;;;;4.60;4.38;;;-1.00;99.90;;;;;;5139176;27;20439;-81
2022/01/10 07:13:35;;;;;;;0.73;0.73;;;-1.00;99.90;;;;;;5139118;27;20078;-76
2022/01/10 07:16:00;;;;;;;1.17;1.07;;;-0.70;99.90;;;;;;5157269;27;20401;-75
2022/01/10 07:18:26;;;;;;;0.70;0.70;;;-1.00;99.90;;;;;;5157289;27;20046;-74
2022/01/10 07:20:51;;;;;;;0.80;0.80;;;-1.00;99.90;;;;;;5157138;27;20046;-77
2022/01/10 07:23:17;;;;;;;0.70;0.70;;;-0.90;99.90;;;;;;5139340;27;20043;-84
2022/01/10 07:25:43;;;;;;;0.70;0.70;;;-1.00;99.90;;;;;;5157010;27;20121;-82
2022/01/10 07:28:08;;;;;;;0.70;0.70;;;-1.00;99.90;;;;;;5121198;27;20039;-77
2022/01/10 07:30:34;;;;;;;1.15;1.08;;;-1.00;99.90;;;;;;5119349;27;20121;-77
2022/01/10 07:32:59;;;;;;;0.70;0.70;;;-1.00;99.90;;;;;;5100441;27;20086;-77
2022/01/10 07:35:25;;;;;;;0.70;0.70;;;-0.90;99.90;;;;;;5118323;27;20043;-76
2022/01/10 07:37:51;;;;;;;0.70;0.70;;;-1.00;99.90;;;;;;5120415;27;20035;-77
2022/01/10 07:40:16;;;;;;;0.70;0.70;;;-1.00;99.90;;;;;;5139971;27;20050;-76
2022/01/10 07:42:42;;;;;;;0.70;0.70;;;-1.00;99.90;;;;;;5158401;27;20162;-78
2022/01/10 07:45:08;;;;;;;0.60;0.60;;;-0.90;99.90;;;;;;5138258;27;20372;-78
2022/01/10 07:47:34;;;;;;;0.80;0.80;;;-1.00;99.90;;;;;;5138031;27;20086;-76
2022/01/10 07:50:00;;;;;;;0.70;0.70;;;-1.10;99.90;;;;;;5138392;27;20043;-77
2022/01/10 07:52:26;;;;;;;0.70;0.70;;;-0.90;99.90;;;;;;5137813;27;20034;-77
2022/01/10 07:54:53;;;;;;;0.70;0.70;;;-0.70;99.90;;;;;;5120860;27;20046;-77
2022/01/10 07:57:19;;;;;;;1.67;0.80;;;-1.00;99.90;;;;;;5137984;27;20081;-77
2022/01/10 07:59:44;;;;;;;0.80;0.80;;;-0.90;99.90;;;;;;5137644;27;20478;-77
2022/01/10 08:02:10;;;;;;;0.70;0.70;;;-1.10;99.90;;;;;;5137950;27;20083;-77
2022/01/10 08:04:39;;;;;;;0.70;0.70;;;-1.00;99.90;;;;;;5138679;27;20054;-77
2022/01/10 08:07:05;;;;;;;2.88;2.67;;;-1.00;99.90;;;;;;5137815;27;20046;-77
2022/01/10 08:09:30;;;;;;;0.80;0.80;;;-1.00;99.90;;;;;;5138009;27;20364;-77
2022/01/10 08:11:59;;;;;;;0.85;0.85;;;-1.00;99.90;;;;;;5120357;27;20470;-78
2022/01/10 08:14:29;;;;;;;0.70;0.70;;;-1.00;99.90;;;;;;5137797;27;20050;-80
2022/01/10 08:16:56;;;;;;;0.80;0.80;;;-1.00;99.90;;;;;;5155482;27;20034;-78
2022/01/10 08:19:22;;;;;;;0.80;0.80;;;-1.00;99.90;;;;;;5137411;27;20038;-78
2022/01/10 08:21:48;;;;;;;0.70;0.70;;;-1.00;99.90;;;;;;5137700;27;20113;-76
2022/01/10 08:24:17;;;;;;;6.77;6.23;;;-1.00;99.90;;;;;;5137709;27;20125;-77
2022/01/10 08:26:42;;;;;;;0.70;0.70;;;-1.60;99.90;;;;;;5156442;27;20514;-78
2022/01/10 08:29:08;;;;;;;0.70;0.70;;;-1.00;99.90;;;;;;5155107;27;20066;-76
2022/01/10 08:31:34;;;;;;;0.75;0.75;;;-1.00;99.90;;;;;;5137242;27;20046;-77
2022/01/10 08:34:03;;;;;;;0.80;0.80;;;-1.00;99.90;;;;;;5137632;27;20043;-78
2022/01/10 08:36:29;;;;;;;0.93;0.93;;;-1.10;99.90;;;;;;5156151;27;20042;-76
2022/01/10 08:38:55;;;;;;;0.70;0.70;;;-1.00;99.90;;;;;;5137540;27;20454;-77
2022/01/10 08:41:21;;;;;;;0.70;0.70;;;-1.50;99.90;;;;;;5136430;27;20126;-78
2022/01/10 08:43:47;;;;;;;0.70;0.70;;;-0.90;99.90;;;;;;5155391;27;20039;-78
2022/01/10 08:46:12;;;;;;;0.80;0.80;;;-0.90;99.90;;;;;;5155382;27;20542;-77
2022/01/10 08:48:38;;;;;;;0.80;0.80;;;-0.80;99.90;;;;;;5114445;27;20043;-77
2022/01/10 08:51:04;;;;;;;0.70;0.70;;;-0.90;99.90;;;;;;5126675;27;20509;-77
2022/01/10 08:53:30;;;;;;;0.70;0.70;;;-0.70;99.90;;;;;;5116608;27;20051;-76
2022/01/10 08:55:55;;;;;;;0.80;0.80;;;-0.90;99.90;;;;;;5132622;27;20550;-76
2022/01/10 08:58:21;;;;;;;0.70;0.70;;;-1.00;99.90;;;;;;5116208;28;20042;-77
2022/01/10 09:00:48;;;;;;;0.70;0.70;;;-0.90;99.90;;;;;;5116350;28;20039;-77
2022/01/10 09:03:14;;;;;;;0.90;0.90;;;-0.80;99.90;;;;;;5116684;28;20078;-77
2022/01/10 09:05:39;;;;;;;0.70;0.70;;;-0.80;99.90;;;;;;5120186;28;20075;-77
2022/01/10 09:08:06;;;;;;;4.80;2.40;;;-0.70;99.90;;;;;;5129981;28;20035;-76
2022/01/10 09:10:31;;;;;;;0.70;0.70;;;-0.70;99.90;;;;;;5133651;28;20050;-77
2022/01/10 09:12:57;;;;;;;0.70;0.70;;;-0.70;99.90;;;;;;5115312;28;20035;-76
2022/01/10 09:15:23;;;;;;;0.80;0.80;;;-0.60;99.90;;;;;;5116382;28;20060;-77
2022/01/10 09:17:49;;;;;;;0.80;0.80;;;-0.60;99.90;;;;;;5099028;28;20039;-77
2022/01/10 09:20:14;;;;;;;0.70;0.70;;;-0.50;99.90;;;;;;5115866;28;20051;-77
2022/01/10 09:22:40;;;;;;;0.70;0.70;;;-0.50;99.90;;;;;;5099145;28;20047;-78
2022/01/10 09:25:06;;;;;;;0.65;0.65;;;-0.40;99.90;;;;;;5099053;28;20046;-77
2022/01/10 09:27:32;;;;;;;0.70;0.70;;;-0.30;99.90;;;;;;5133528;28;20039;-77
2022/01/10 09:29:58;;;;;;;0.70;0.70;;;-0.20;99.90;;;;;;5115384;28;20104;-78
2022/01/10 09:32:26;;;;;;;0.70;0.70;;;-0.10;99.90;;;;;;5115748;28;20039;-76
2022/01/10 09:34:52;;;;;;;0.70;0.70;;;-0.10;99.90;;;;;;5134133;28;20092;-76
2022/01/10 09:37:17;;;;;;;0.70;0.70;;;0.60;99.90;;;;;;5134009;28;20047;-76
2022/01/10 09:39:43;;;;;;;0.70;0.70;;;0.00;99.90;;;;;;5134476;28;20079;-77
2022/01/10 09:42:10;;;;;;;0.60;0.60;;;0.20;99.90;;;;;;5135410;28;20440;-76
2022/01/10 09:44:36;;;;;;;0.70;0.70;;;0.20;99.90;;;;;;5138894;28;20058;-76
2022/01/10 09:47:02;;;;;;;0.70;0.70;;;0.80;99.90;;;;;;5139553;28;20051;-76
2022/01/10 09:49:27;;;;;;;0.70;0.70;;;0.30;99.90;;;;;;5139289;28;20046;-78
2022/01/10 09:51:53;;;;;;;0.70;0.70;;;0.50;99.90;;;;;;5135538;28;20039;-77
2022/01/10 09:54:19;;;;;;;0.70;0.70;;;0.50;99.90;;;;;;5116882;28;20043;-76
2022/01/10 09:56:49;;;;;;;0.70;0.70;;;0.60;99.90;;;;;;5115882;28;20447;-77
2022/01/10 09:59:15;;;;;;;0.80;0.80;;;0.60;99.90;;;;;;5133865;28;20047;-76
2022/01/10 10:01:43;;;;;;;0.60;0.60;;;0.70;99.90;;;;;;5134001;28;20090;-77
2022/01/10 10:04:10;;;;;;;0.70;0.70;;;0.80;99.90;;;;;;5133884;28;20047;-77
2022/01/10 10:06:36;;;;;;;0.68;0.68;;;0.90;99.90;;;;;;5134734;27;20107;-77
2022/01/10 10:09:04;;;;;;;0.60;0.60;;;0.90;99.90;;;;;;5137607;27;20035;-78
2022/01/10 10:11:48;;;;;;;0.70;0.70;;;1.00;99.90;;;;;;5102258;27;20528;-78
2022/01/10 10:14:17;;;;;;;3.00;2.80;;;1.10;99.90;;;;;;5137373;27;20067;-77
2022/01/10 10:16:51;;;;;;;0.70;0.70;;;1.20;99.90;;;;;;5137606;27;20039;-78
2022/01/10 10:19:22;;;;;;;0.70;0.70;;;1.50;99.90;;;;;;5137263;27;20497;-78
2022/01/10 10:21:49;;;;;;;0.80;0.80;;;1.30;99.90;;;;;;5119396;27;20039;-78
2022/01/10 10:24:15;;;;;;;1.35;0.80;;;1.40;99.90;;;;;;5102228;27;20367;-77
2022/01/10 10:26:41;;;;;;;0.70;0.70;;;1.50;99.90;;;;;;5119230;27;20054;-77
2022/01/10 10:29:09;;;;;;;1.83;1.73;;;1.50;99.90;;;;;;5101898;27;20047;-79
2022/01/10 10:31:44;;;;;;;0.70;0.70;;;1.20;99.90;;;;;;5118930;27;20131;-78
2022/01/10 10:34:09;;;;;;;4.43;2.35;;;1.60;99.90;;;;;;5102171;27;20077;-77
2022/01/10 10:36:37;;;;;;;1.33;1.23;;;1.70;99.90;;;;;;5123256;27;20486;-79
2022/01/10 10:39:07;;;;;;;1.15;1.05;;;1.80;99.90;;;;;;5157486;27;20038;-78
2022/01/10 10:41:36;;;;;;;0.60;0.60;;;1.90;99.90;;;;;;5155551;27;20050;-77
2022/01/10 10:44:03;;;;;;;0.88;0.88;;;1.90;99.90;;;;;;5157154;27;20121;-77
2022/01/10 10:46:29;;;;;;;0.93;0.93;;;2.00;99.90;;;;;;5157053;27;20194;-77
2022/01/10 10:49:00;;;;;;;0.70;0.70;;;2.10;99.90;;;;;;5142091;27;20539;-78
2022/01/10 10:51:27;;;;;;;0.60;0.60;;;2.20;99.90;;;;;;5136682;27;20053;-78
2022/01/10 10:54:05;;;;;;;1.00;1.00;;;2.20;99.90;;;;;;5118452;27;20126;-78
2022/01/10 10:56:34;;;;;;;;;;;2.30;99.90;;;;;;5137348;27;20043;-77
2022/01/10 10:59:01;;;;;;;0.88;0.88;;;2.30;99.90;;;;;;5136504;27;19923;-79
2022/01/10 11:01:26;;;;;;;2.33;2.20;;;2.40;99.90;;;;;;5147606;27;20081;-77
2022/01/10 11:03:53;;;;;;;0.70;0.70;;;2.50;99.90;;;;;;5156669;27;20119;-77
2022/01/10 11:06:19;;;;;;;0.70;0.70;;;2.60;99.90;;;;;;5157454;27;20129;-81
2022/01/10 11:08:45;;;;;;;0.60;0.60;;;2.70;99.90;;;;;;5138814;27;20390;-83
2022/01/10 11:11:16;;;;;;;0.90;0.90;;;2.80;99.90;;;;;;5157012;27;20043;-79
2022/01/10 11:13:42;;;;;;;1.10;1.00;;;2.80;99.90;;;;;;5157139;27;20049;-78
2022/01/10 11:16:09;;;;;;;3.10;2.85;;;2.80;99.90;;;;;;5138893;27;20088;-78
2022/01/10 11:18:37;;;;;;;0.70;0.70;;;2.90;99.90;;;;;;5138416;27;20046;-78
2022/01/10 11:21:02;;;;;;;0.60;0.60;;;3.00;99.90;;;;;;5138492;27;20098;-78
2022/01/10 11:23:28;;;;;;;1.90;1.80;;;3.00;99.90;;;;;;5138705;27;20138;-78
2022/01/10 11:25:57;;;;;;;1.15;1.10;;;3.10;99.90;;;;;;5121421;27;20042;-77
2022/01/10 11:28:24;;;;;;;1.17;1.13;;;3.20;99.90;;;;;;5121044;27;20081;-77
2022/01/10 11:30:58;;;;;;;1.40;1.33;;;3.20;99.90;;;;;;5156185;27;20043;-80
2022/01/10 11:33:32;;;;;;;0.60;0.60;;;3.30;99.90;;;;;;5137975;27;20047;-81
2022/01/10 11:36:10;;;;;;;1.60;1.17;;;3.40;99.90;;;;;;5114150;27;20043;-79
2022/01/10 11:38:44;;;;;;;;;;;3.40;99.90;;;;;;5136083;27;20043;-77
2022/01/10 11:41:23;;;;;;;0.70;0.70;;;3.50;99.90;;;;;;5135759;27;19930;-77
2022/01/10 11:43:52;;;;;;;1.80;1.70;;;3.60;99.90;;;;;;5136295;27;20436;-77
2022/01/10 11:46:26;;;;;;;1.35;1.25;;;3.60;99.90;;;;;;5117986;27;20130;-78
2022/01/10 11:49:02;;;;;;;0.80;0.80;;;3.60;99.90;;;;;;5135493;27;20054;-78
2022/01/10 11:51:31;;;;;;;0.77;0.77;;;3.70;99.90;;;;;;5100991;27;20075;-78
2022/01/10 11:54:22;;;;;;;1.85;1.25;;;3.70;99.90;;;;;;5135395;27;20118;-78
2022/01/10 11:57:12;;;;;;;1.35;0.95;;;3.80;99.90;;;;;;5117795;27;20106;-78
2022/01/10 11:59:48;;;;;;;0.60;0.60;;;3.80;99.90;;;;;;5116523;27;20517;-78
2022/01/10 12:02:23;;;;;;;3.08;2.80;;;3.90;99.90;;;;;;5135325;27;20047;-78
2022/01/10 12:04:52;;;;;;;0.60;0.60;;;3.90;99.90;;;;;;5135994;27;20047;-78
2022/01/10 12:07:20;;;;;;;0.60;0.60;;;3.90;99.90;;;;;;5135547;27;20103;-78
2022/01/10 12:09:49;;;;;;;0.70;0.70;;;4.00;99.90;;;;;;5135133;27;20131;-77
2022/01/10 12:12:17;;;;;;;1.65;1.55;;;4.00;99.90;;;;;;5135170;27;20479;-79
2022/01/10 12:14:44;;;;;;;1.08;0.98;;;4.00;99.90;;;;;;5134652;27;20039;-78
2022/01/10 12:17:11;;;;;;;0.60;0.60;;;4.00;99.90;;;;;;5117060;27;20047;-78
2022/01/10 12:19:39;;;;;;;1.50;1.40;;;4.00;99.90;;;;;;5135085;27;20493;-77
2022/01/10 12:22:06;;;;;;;0.70;0.70;;;4.10;99.90;;;;;;5135108;27;20047;-78
2022/01/10 12:24:36;;;;;;;0.60;0.60;;;4.10;99.90;;;;;;5134913;27;20103;-79
2022/01/10 12:27:03;;;;;;;0.95;0.95;;;4.10;99.90;;;;;;5134896;27;20039;-78
2022/01/10 12:29:30;;;;;;;1.40;1.30;;;4.10;99.90;;;;;;5133895;27;20173;-78
2022/01/10 12:31:57;;;;;;;1.02;1.02;;;4.10;99.90;;;;;;5135060;27;20050;-78
2022/01/10 12:34:22;;;;;;;1.63;1.52;;;4.10;99.90;;;;;;5134593;27;20540;-79
2022/01/10 12:36:48;;;;;;;1.20;0.70;;;4.20;99.90;;;;;;5134854;27;20047;-79
2022/01/10 12:39:21;;;;;;;1.33;0.93;;;4.10;99.90;;;;;;5134461;27;20036;-79
2022/01/10 12:41:48;;;;;;;1.38;1.27;;;4.20;99.90;;;;;;5134847;27;20039;-78
2022/01/10 12:44:14;;;;;;;1.75;1.60;;;4.20;99.90;;;;;;5116659;27;20051;-78
2022/01/10 12:46:40;;;;;;;1.00;0.95;;;4.40;99.90;;;;;;5116310;27;20059;-77
2022/01/10 12:49:09;;;;;;;0.80;0.80;;;4.20;99.90;;;;;;5134517;27;20047;-78
2022/01/10 12:51:44;;;;;;;0.60;0.60;;;4.20;99.90;;;;;;5116423;27;20051;-78
2022/01/10 12:54:15;;;;;;;2.15;1.95;;;4.20;99.90;;;;;;5134230;27;20447;-79
2022/01/10 12:56:41;;;;;;;0.80;0.80;;;4.30;99.90;;;;;;5134325;27;20047;-78
2022/01/10 12:59:11;;;;;;;0.95;0.95;;;4.20;99.90;;;;;;5116545;27;20088;-77
2022/01/10 13:01:37;;;;;;;2.75;2.55;;;4.10;99.90;;;;;;5134406;27;20043;-78
2022/01/10 13:04:02;;;;;;;0.70;0.70;;;4.10;99.90;;;;;;5134636;28;20039;-78
2022/01/10 13:06:34;;;;;;;1.20;1.10;;;4.10;99.90;;;;;;5134200;28;20039;-78